createdAt,value
2019-02-23T00:00:48.849Z,88.23
2019-02-23T00:01:48.827Z,88.04
2019-02-23T00:02:48.808Z,88.32
2019-02-23T00:03:48.789Z,88.32
2019-02-23T00:04:48.771Z,88.23
2019-02-23T00:05:48.752Z,87.94
2019-02-23T00:06:48.732Z,87.75
2019-02-23T00:07:48.714Z,87.85
2019-02-23T00:08:48.696Z,87.66
2019-02-23T00:09:48.676Z,87.56
2019-02-23T00:10:48.658Z,87.94
2019-02-23T00:11:48.401Z,87.18
2019-02-23T00:12:48.628Z,86.8
2019-02-23T00:13:48.603Z,87.04
2019-02-23T00:14:48.582Z,86.47
2019-02-23T00:15:48.563Z,86.1
2019-02-23T00:16:48.547Z,86.29
2019-02-23T00:17:48.530Z,86.29
2019-02-23T00:18:48.508Z,85.53
2019-02-23T00:19:48.490Z,85.81
2019-02-23T00:20:48.471Z,85.43
2019-02-23T00:21:48.454Z,85.05
2019-02-23T00:22:48.437Z,85.43
2019-02-23T00:23:48.416Z,84.77
2019-02-23T00:24:48.440Z,84.86
2019-02-23T00:25:48.383Z,84.77
2019-02-23T00:26:48.368Z,84.58
2019-02-23T00:27:48.341Z,84.68
2019-02-23T00:28:48.323Z,84.77
2019-02-23T00:29:48.062Z,84.68
2019-02-23T00:30:48.291Z,84.68
2019-02-23T00:31:48.269Z,84.77
2019-02-23T00:32:48.252Z,85.05
2019-02-23T00:33:48.232Z,84.86
2019-02-23T00:34:48.228Z,84.68
2019-02-23T00:35:47.953Z,84.77
2019-02-23T00:36:48.178Z,84.86
2019-02-23T00:37:48.158Z,84.96
2019-02-23T00:38:48.142Z,84.68
2019-02-23T00:39:48.422Z,84.58
2019-02-23T00:40:48.181Z,84.58
2019-02-23T00:41:48.086Z,84.58
2019-02-23T00:42:48.068Z,84.68
2019-02-23T00:43:48.049Z,84.68
2019-02-23T00:44:48.033Z,84.86
2019-02-23T00:45:48.016Z,84.58
2019-02-23T00:46:47.753Z,84.96
2019-02-23T00:47:47.979Z,84.86
2019-02-23T00:48:47.962Z,84.49
2019-02-23T00:49:47.944Z,84.11
2019-02-23T00:50:47.923Z,84.49
2019-02-23T00:51:47.904Z,83.92
2019-02-23T00:52:47.893Z,84.2
2019-02-23T00:53:47.872Z,83.83
2019-02-23T00:54:47.848Z,82.98
2019-02-23T00:55:47.834Z,83.45
2019-02-23T00:56:47.817Z,83.54
2019-02-23T00:57:47.801Z,83.26
2019-02-23T00:58:47.779Z,83.26
2019-02-23T00:59:47.760Z,82.79
2019-02-23T01:00:47.747Z,82.6
2019-02-23T01:01:47.732Z,82.69
2019-02-23T01:02:47.707Z,82.79
2019-02-23T01:03:47.686Z,82.69
2019-02-23T01:04:47.671Z,82.69
2019-02-23T01:05:47.407Z,82.69
2019-02-23T01:06:47.638Z,82.88
2019-02-23T01:07:47.629Z,83.07
2019-02-23T01:08:47.596Z,82.12
2019-02-23T01:09:47.579Z,82.12
2019-02-23T01:10:57.640Z,82.41
2019-02-23T01:11:47.543Z,82.31
2019-02-23T01:12:47.527Z,81.93
2019-02-23T01:13:47.504Z,82.03
2019-02-23T01:14:47.489Z,82.31
2019-02-23T01:15:47.478Z,81.41
2019-02-23T01:16:47.702Z,81.09
2019-02-23T01:17:47.437Z,81.18
2019-02-23T01:18:47.415Z,81.41
2019-02-23T01:19:50.412Z,81.37
2019-02-23T01:20:47.379Z,81.6
2019-02-23T01:21:47.361Z,81.51
2019-02-23T01:22:47.348Z,80.84
2019-02-23T01:23:47.326Z,80.46
2019-02-23T01:24:47.312Z,80.75
2019-02-23T01:25:47.291Z,80.46
2019-02-23T01:26:47.316Z,80.65
2019-02-23T01:27:47.255Z,80.46
2019-02-23T01:28:47.249Z,80.37
2019-02-23T01:29:47.242Z,79.9
2019-02-23T01:30:47.202Z,80.18
2019-02-23T01:31:47.184Z,79.52
2019-02-23T01:32:47.167Z,79.8
2019-02-23T01:33:46.909Z,79.71
2019-02-23T01:34:47.130Z,80.18
2019-02-23T01:35:47.112Z,79.9
2019-02-23T01:36:47.098Z,80.08
2019-02-23T01:37:47.077Z,79.61
2019-02-23T01:38:47.060Z,79.52
2019-02-23T01:39:47.055Z,80.18
2019-02-23T01:40:47.024Z,80.18
2019-02-23T01:41:47.004Z,80.27
2019-02-23T01:42:46.989Z,80.18
2019-02-23T01:43:46.969Z,80.56
2019-02-23T01:44:46.953Z,79.9
2019-02-23T01:45:46.933Z,79.52
2019-02-23T01:46:46.915Z,79.8
2019-02-23T01:47:47.149Z,79.43
2019-02-23T01:48:46.881Z,79.33
2019-02-23T01:49:46.863Z,79.43
2019-02-23T01:50:46.845Z,79.14
2019-02-23T01:51:46.827Z,79.05
2019-02-23T01:52:46.810Z,78.76
2019-02-23T01:53:46.791Z,79.43
2019-02-23T01:54:46.773Z,79.33
2019-02-23T01:55:46.759Z,79.33
2019-02-23T01:56:46.737Z,79.43
2019-02-23T01:57:46.719Z,78.76
2019-02-23T01:58:46.703Z,79.05
2019-02-23T01:59:46.684Z,79.33
2019-02-23T02:00:46.668Z,79.14
2019-02-23T02:01:46.648Z,79.14
2019-02-23T02:02:46.634Z,79.38
2019-02-23T02:03:46.617Z,79.57
2019-02-23T02:04:46.603Z,79.29
2019-02-23T02:05:46.577Z,79.52
2019-02-23T02:06:46.561Z,79.48
2019-02-23T02:07:46.544Z,79.38
2019-02-23T02:08:46.523Z,79.57
2019-02-23T02:09:46.506Z,79.57
2019-02-23T02:10:46.494Z,79.48
2019-02-23T02:11:46.473Z,79.57
2019-02-23T02:12:46.453Z,79.67
2019-02-23T02:13:46.435Z,80.33
2019-02-23T02:14:46.417Z,80.05
2019-02-23T02:15:46.399Z,79.86
2019-02-23T02:16:46.388Z,80.05
2019-02-23T02:17:46.369Z,80.14
2019-02-23T02:18:46.598Z,80.24
2019-02-23T02:19:46.329Z,80.43
2019-02-23T02:20:46.308Z,80.99
2019-02-23T02:21:46.291Z,81.27
2019-02-23T02:22:46.273Z,81.27
2019-02-23T02:23:46.255Z,80.99
2019-02-23T02:24:46.237Z,81.46
2019-02-23T02:25:46.219Z,80.8
2019-02-23T02:26:46.201Z,80.9
2019-02-23T02:27:46.184Z,81.09
2019-02-23T02:28:46.164Z,80.8
2019-02-23T02:29:46.146Z,80.99
2019-02-23T02:30:46.129Z,81.56
2019-02-23T02:31:46.112Z,80.99
2019-02-23T02:32:46.103Z,80.9
2019-02-23T02:33:46.083Z,81.27
2019-02-23T02:34:46.060Z,81.18
2019-02-23T02:35:46.040Z,81.56
2019-02-23T02:36:46.023Z,82.12
2019-02-23T02:37:46.003Z,81.74
2019-02-23T02:38:45.985Z,81.93
2019-02-23T02:39:45.981Z,81.71
2019-02-23T02:40:45.948Z,82.41
2019-02-23T02:41:45.930Z,81.99
2019-02-23T02:42:45.909Z,81.99
2019-02-23T02:43:45.891Z,82.37
2019-02-23T02:44:45.870Z,82.65
2019-02-23T02:45:45.858Z,82.75
2019-02-23T02:46:45.836Z,82.65
2019-02-23T02:47:45.822Z,82.65
2019-02-23T02:48:45.799Z,83.31
2019-02-23T02:49:45.784Z,83.59
2019-02-23T02:50:45.763Z,83.78
2019-02-23T02:51:45.746Z,83.22
2019-02-23T02:52:45.724Z,83.78
2019-02-23T02:53:45.706Z,83.78
2019-02-23T02:54:45.696Z,83.5
2019-02-23T02:55:45.683Z,83.88
2019-02-23T02:56:45.699Z,83.97
2019-02-23T02:57:45.633Z,83.78
2019-02-23T02:58:45.618Z,83.88
2019-02-23T02:59:45.622Z,84.16
2019-02-23T03:00:45.577Z,84.26
2019-02-23T03:01:45.561Z,83.69
2019-02-23T03:02:45.591Z,84.64
2019-02-23T03:03:45.537Z,84.82
2019-02-23T03:04:45.515Z,84.92
2019-02-23T03:05:45.485Z,84.64
2019-02-23T03:06:45.472Z,84.35
2019-02-23T03:07:45.452Z,84.54
2019-02-23T03:08:45.452Z,84.64
2019-02-23T03:09:45.419Z,85.01
2019-02-23T03:10:45.401Z,84.82
2019-02-23T03:11:45.379Z,84.64
2019-02-23T03:12:45.355Z,85.39
2019-02-23T03:13:45.334Z,85.2
2019-02-23T03:14:45.323Z,85.3
2019-02-23T03:15:45.311Z,85.39
2019-02-23T03:16:45.279Z,85.86
2019-02-23T03:17:45.268Z,85.49
2019-02-23T03:18:45.240Z,86.05
2019-02-23T03:19:45.223Z,85.96
2019-02-23T03:20:45.208Z,86.24
2019-02-23T03:21:45.188Z,86.33
2019-02-23T03:22:45.166Z,86.33
2019-02-23T03:23:45.154Z,86.8
2019-02-23T03:24:45.124Z,86.8
2019-02-23T03:25:45.112Z,87.18
2019-02-23T03:26:45.112Z,86.71
2019-02-23T03:27:45.069Z,87.09
2019-02-23T03:28:45.050Z,87.37
2019-02-23T03:29:45.035Z,87.37
2019-02-23T03:30:45.042Z,87.28
2019-02-23T03:31:44.996Z,87.28
2019-02-23T03:32:44.992Z,87.18
2019-02-23T03:33:44.978Z,87.18
2019-02-23T03:34:44.938Z,87.28
2019-02-23T03:35:44.921Z,87.47
2019-02-23T03:36:44.901Z,87.56
2019-02-23T03:37:44.882Z,87.47
2019-02-23T03:38:44.864Z,87.28
2019-02-23T03:39:44.843Z,87.47
2019-02-23T03:40:44.828Z,87.66
2019-02-23T03:41:44.808Z,87.66
2019-02-23T03:42:44.785Z,87.56
2019-02-23T03:43:44.832Z,87.56
2019-02-23T03:44:44.750Z,87.56
2019-02-23T03:45:44.749Z,87.66
2019-02-23T03:46:44.715Z,87.18
2019-02-23T03:47:44.689Z,87.56
2019-02-23T03:48:44.676Z,87.18
2019-02-23T03:49:44.655Z,87.37
2019-02-23T03:50:51.765Z,87.18
2019-02-23T03:51:44.616Z,87.09
2019-02-23T03:52:44.599Z,87.56
2019-02-23T03:53:44.602Z,87.28
2019-02-23T03:54:44.560Z,87.18
2019-02-23T03:55:44.543Z,86.8
2019-02-23T03:56:44.530Z,87.18
2019-02-23T03:57:44.504Z,87.09
2019-02-23T03:58:44.483Z,86.9
2019-02-23T03:59:44.476Z,86.9
2019-02-23T04:00:44.203Z,86.99
2019-02-23T04:01:44.429Z,86.99
2019-02-23T04:02:44.429Z,86.99
2019-02-23T04:03:44.389Z,87.09
2019-02-23T04:04:44.372Z,86.99
2019-02-23T04:05:44.352Z,86.71
2019-02-23T04:06:44.337Z,86.9
2019-02-23T04:07:44.317Z,87.18
2019-02-23T04:08:44.294Z,86.9
2019-02-23T04:09:44.275Z,86.99
2019-02-23T04:10:44.257Z,86.71
2019-02-23T04:11:44.239Z,87.18
2019-02-23T04:12:44.220Z,86.8
2019-02-23T04:13:44.205Z,87.28
2019-02-23T04:14:44.188Z,86.99
2019-02-23T04:15:44.172Z,86.71
2019-02-23T04:16:44.149Z,86.9
2019-02-23T04:17:44.131Z,86.99
2019-02-23T04:18:44.107Z,86.8
2019-02-23T04:19:44.088Z,86.8
2019-02-23T04:20:44.111Z,86.71
2019-02-23T04:21:44.050Z,86.71
2019-02-23T04:22:44.031Z,86.15
2019-02-23T04:23:44.012Z,86.43
2019-02-23T04:24:43.999Z,86.43
2019-02-23T04:25:43.985Z,86.43
2019-02-23T04:26:43.965Z,86.43
2019-02-23T04:27:43.938Z,86.43
2019-02-23T04:28:43.921Z,86.71
2019-02-23T04:29:46.893Z,86.62
2019-02-23T04:30:43.882Z,86.43
2019-02-23T04:31:43.897Z,86.62
2019-02-23T04:32:43.856Z,85.96
2019-02-23T04:33:43.828Z,85.86
2019-02-23T04:34:43.810Z,85.39
2019-02-23T04:35:46.460Z,85.68
2019-02-23T04:36:43.770Z,85.68
2019-02-23T04:37:43.752Z,85.58
2019-02-23T04:38:43.735Z,85.68
2019-02-23T04:39:43.722Z,85.49
2019-02-23T04:40:43.699Z,85.49
2019-02-23T04:41:43.682Z,85.49
2019-02-23T04:42:43.658Z,85.58
2019-02-23T04:43:46.608Z,85.49
2019-02-23T04:44:43.623Z,85.39
2019-02-23T04:45:43.619Z,85.3
2019-02-23T04:46:43.594Z,85.49
2019-02-23T04:47:43.574Z,86.24
2019-02-23T04:48:43.561Z,86.15
2019-02-23T04:49:43.531Z,85.3
2019-02-23T04:50:43.511Z,86.15
2019-02-23T04:51:43.508Z,86.15
2019-02-23T04:52:43.482Z,86.05
2019-02-23T04:53:43.467Z,85.58
2019-02-23T04:54:43.684Z,85.39
2019-02-23T04:55:43.420Z,85.49
2019-02-23T04:56:43.404Z,85.49
2019-02-23T04:57:43.379Z,85.39
2019-02-23T04:58:43.364Z,85.39
2019-02-23T04:59:43.341Z,85.58
2019-02-23T05:00:44.981Z,85.58
2019-02-23T05:01:43.306Z,86.15
2019-02-23T05:02:43.286Z,85.49
2019-02-23T05:03:43.265Z,85.86
2019-02-23T05:04:43.246Z,86.24
2019-02-23T05:05:43.227Z,86.15
2019-02-23T05:06:43.212Z,86.05
2019-02-23T05:07:43.189Z,85.3
2019-02-23T05:08:43.172Z,86.15
2019-02-23T05:09:43.157Z,86.15
2019-02-23T05:10:43.134Z,85.86
2019-02-23T05:11:43.117Z,86.05
2019-02-23T05:12:43.106Z,86.05
2019-02-23T05:13:43.081Z,86.15
2019-02-23T05:14:43.093Z,86.24
2019-02-23T05:15:43.040Z,86.24
2019-02-23T05:16:43.024Z,86.15
2019-02-23T05:17:43.000Z,86.71
2019-02-23T05:18:42.984Z,86.9
2019-02-23T05:19:42.964Z,86.71
2019-02-23T05:20:42.955Z,86.71
2019-02-23T05:21:42.928Z,86.9
2019-02-23T05:22:42.915Z,87.37
2019-02-23T05:23:42.897Z,87.85
2019-02-23T05:24:42.871Z,87.56
2019-02-23T05:25:43.206Z,87.75
2019-02-23T05:26:42.906Z,87.75
2019-02-23T05:27:42.820Z,87.75
2019-02-23T05:28:42.794Z,87.75
2019-02-23T05:29:42.774Z,87.56
2019-02-23T05:30:42.769Z,87.85
2019-02-23T05:31:42.744Z,87.66
2019-02-23T05:32:42.731Z,88.13
2019-02-23T05:33:42.700Z,87.94
2019-02-23T05:34:42.680Z,88.13
2019-02-23T05:35:42.750Z,88.51
2019-02-23T05:36:42.662Z,88.32
2019-02-23T05:37:42.644Z,88.42
2019-02-23T05:38:42.606Z,88.32
2019-02-23T05:39:42.591Z,88.32
2019-02-23T05:40:42.571Z,88.79
2019-02-23T05:41:42.566Z,88.51
2019-02-23T05:42:42.539Z,88.7
2019-02-23T05:43:42.514Z,88.89
2019-02-23T05:44:42.494Z,88.98
2019-02-23T05:45:42.470Z,89.54
2019-02-23T05:46:42.452Z,88.93
2019-02-23T05:47:42.432Z,89.31
2019-02-23T05:48:42.413Z,90.11
2019-02-23T05:49:42.397Z,90.35
2019-02-23T05:50:42.382Z,90.07
2019-02-23T05:51:42.361Z,90.54
2019-02-23T05:52:42.342Z,90.64
2019-02-23T05:53:42.325Z,91.01
2019-02-23T05:54:42.301Z,90.73
2019-02-23T05:55:42.280Z,90.45
2019-02-23T05:56:42.519Z,91.11
2019-02-23T05:57:42.249Z,91.01
2019-02-23T05:58:42.228Z,90.82
2019-02-23T05:59:42.210Z,91.2
2019-02-23T06:00:42.189Z,91.3
2019-02-23T06:01:42.202Z,91.39
2019-02-23T06:02:44.896Z,91.2
2019-02-23T06:03:42.131Z,91.39
2019-02-23T06:04:42.110Z,91.77
2019-02-23T06:05:42.089Z,91.86
2019-02-23T06:06:42.071Z,91.67
2019-02-23T06:07:42.062Z,91.58
2019-02-23T06:08:42.040Z,91.86
2019-02-23T06:09:42.014Z,92.14
2019-02-23T06:10:44.552Z,92.14
2019-02-23T06:11:41.973Z,92.24
2019-02-23T06:12:41.956Z,92.43
2019-02-23T06:13:41.937Z,92.43
2019-02-23T06:14:41.921Z,92.33
2019-02-23T06:15:41.904Z,92.33
2019-02-23T06:16:41.879Z,92.99
2019-02-23T06:17:41.865Z,92.61
2019-02-23T06:18:41.600Z,93.09
2019-02-23T06:19:41.823Z,93.09
2019-02-23T06:20:41.811Z,93.56
2019-02-23T06:21:55.392Z,92.99
2019-02-23T06:22:41.771Z,92.8
2019-02-23T06:23:41.745Z,92.9
2019-02-23T06:24:41.729Z,93.09
2019-02-23T06:25:41.713Z,93.09
2019-02-23T06:26:41.689Z,92.9
2019-02-23T06:27:41.680Z,92.9
2019-02-23T06:28:41.651Z,92.99
2019-02-23T06:29:41.630Z,92.43
2019-02-23T06:30:41.610Z,92.43
2019-02-23T06:31:41.593Z,92.43
2019-02-23T06:32:41.578Z,92.52
2019-02-23T06:33:41.553Z,92.52
2019-02-23T06:34:41.537Z,92.33
2019-02-23T06:35:41.521Z,92.43
2019-02-23T06:36:41.572Z,92.33
2019-02-23T06:37:41.489Z,92.76
2019-02-23T06:38:41.459Z,92.66
2019-02-23T06:39:41.440Z,92.14
2019-02-23T06:40:41.421Z,92.38
2019-02-23T06:41:41.402Z,91.53
2019-02-23T06:42:41.383Z,91.91
2019-02-23T06:43:41.363Z,91.91
2019-02-23T06:44:41.362Z,91.91
2019-02-23T06:45:41.326Z,91.72
2019-02-23T06:46:41.310Z,91.91
2019-02-23T06:47:41.293Z,91.91
2019-02-23T06:48:41.272Z,91.06
2019-02-23T06:49:41.254Z,90.96
2019-02-23T06:50:41.232Z,91.25
2019-02-23T06:51:41.214Z,91.53
2019-02-23T06:52:41.198Z,90.96
2019-02-23T06:53:41.175Z,90.87
2019-02-23T06:54:41.159Z,90.87
2019-02-23T06:55:41.144Z,90.87
2019-02-23T06:56:41.121Z,90.59
2019-02-23T06:57:41.104Z,90.4
2019-02-23T06:58:41.084Z,90.59
2019-02-23T06:59:41.075Z,90.96
2019-02-23T07:00:41.046Z,90.49
2019-02-23T07:01:41.029Z,90.35
2019-02-23T07:02:41.028Z,90.35
2019-02-23T07:03:40.994Z,90.35
2019-02-23T07:04:40.976Z,90.06
2019-02-23T07:05:40.958Z,89.87
2019-02-23T07:06:40.944Z,89.03
2019-02-23T07:07:40.928Z,89.03
2019-02-23T07:08:40.909Z,88.74
2019-02-23T07:09:40.889Z,88.17
2019-02-23T07:10:40.627Z,87.93
2019-02-23T07:11:40.853Z,87.65
2019-02-23T07:12:40.836Z,87.08
2019-02-23T07:13:40.574Z,86.52
2019-02-23T07:14:40.802Z,86.14
2019-02-23T07:15:40.783Z,85.76
2019-02-23T07:16:40.766Z,85.66
2019-02-23T07:17:40.753Z,85.47
2019-02-23T07:18:40.733Z,84.72
2019-02-23T07:19:40.717Z,84.58
2019-02-23T07:20:46.788Z,84.2
2019-02-23T07:21:40.698Z,83.91
2019-02-23T07:22:40.668Z,83.82
2019-02-23T07:23:40.651Z,82.78
2019-02-23T07:24:40.639Z,82.4
2019-02-23T07:25:40.620Z,82.59
2019-02-23T07:26:40.603Z,81.74
2019-02-23T07:27:40.599Z,81.93
2019-02-23T07:28:40.575Z,81.64
2019-02-23T07:29:40.558Z,81.12
2019-02-23T07:30:40.619Z,80.93
2019-02-23T07:31:40.527Z,80.64
2019-02-23T07:32:40.522Z,80.07
2019-02-23T07:33:40.497Z,79.88
2019-02-23T07:34:40.482Z,80.17
2019-02-23T07:35:40.473Z,78.94
2019-02-23T07:36:40.455Z,78.56
2019-02-23T07:37:40.438Z,78.59
2019-02-23T07:38:40.423Z,77.61
2019-02-23T07:39:40.409Z,77.65
2019-02-23T07:40:40.398Z,76.99
2019-02-23T07:41:40.382Z,76.7
2019-02-23T07:42:40.366Z,75.57
2019-02-23T07:43:40.352Z,75
2019-02-23T07:44:40.340Z,74.52
2019-02-23T07:45:40.324Z,74.81
2019-02-23T07:46:40.310Z,75.09
2019-02-23T07:47:40.296Z,74.71
2019-02-23T07:48:40.287Z,74.24
2019-02-23T07:49:40.275Z,74.33
2019-02-23T07:50:40.254Z,73.77
2019-02-23T07:51:40.240Z,73.86
2019-02-23T07:52:40.228Z,74.52
2019-02-23T07:53:40.216Z,73.96
2019-02-23T07:54:40.199Z,73.49
2019-02-23T07:55:40.187Z,73.01
2019-02-23T07:56:40.171Z,72.73
2019-02-23T07:57:40.160Z,72.53
2019-02-23T07:58:40.152Z,72.06
2019-02-23T07:59:40.128Z,71.31
2019-02-23T08:00:40.119Z,72.16
2019-02-23T08:01:40.421Z,71.93
2019-02-23T08:02:40.086Z,72.5
2019-02-23T08:03:40.072Z,72.78
2019-02-23T08:04:40.060Z,73.64
2019-02-23T08:05:40.043Z,72.78
2019-02-23T08:06:40.032Z,72.97
2019-02-23T08:07:42.306Z,72.6
2019-02-23T08:08:40.000Z,72.41
2019-02-23T08:09:39.986Z,71.74
2019-02-23T08:10:39.971Z,71.84
2019-02-23T08:11:39.959Z,72.41
2019-02-23T08:12:39.951Z,72.5
2019-02-23T08:13:40.652Z,72.31
2019-02-23T08:14:39.913Z,72.22
2019-02-23T08:15:39.898Z,72.22
2019-02-23T08:16:39.886Z,72.41
2019-02-23T08:17:39.869Z,72.5
2019-02-23T08:18:39.852Z,71.93
2019-02-23T08:19:39.840Z,71.36
2019-02-23T08:20:39.822Z,71.17
2019-02-23T08:21:39.808Z,71.36
2019-02-23T08:22:40.121Z,70.61
2019-02-23T08:23:39.779Z,69.38
2019-02-23T08:24:39.762Z,68.81
2019-02-23T08:25:39.755Z,68.62
2019-02-23T08:26:39.737Z,68.52
2019-02-23T08:27:39.717Z,68.52
2019-02-23T08:28:39.702Z,68.81
2019-02-23T08:29:39.685Z,68.81
2019-02-23T08:30:39.429Z,68.43
2019-02-23T08:31:39.655Z,68.33
2019-02-23T08:32:39.893Z,67.86
2019-02-23T08:33:39.624Z,67.11
2019-02-23T08:34:39.620Z,66.63
2019-02-23T08:35:39.594Z,67.39
2019-02-23T08:36:39.577Z,67.68
2019-02-23T08:37:39.646Z,67.3
2019-02-23T08:38:39.547Z,67.39
2019-02-23T08:39:39.531Z,67.3
2019-02-23T08:40:39.516Z,67.14
2019-02-23T08:41:39.503Z,66.95
2019-02-23T08:42:39.487Z,67.24
2019-02-23T08:43:39.473Z,67.43
2019-02-23T08:44:39.457Z,67.05
2019-02-23T08:45:39.491Z,66.57
2019-02-23T08:46:39.423Z,65.44
2019-02-23T08:47:39.408Z,65.25
2019-02-23T08:48:39.393Z,65.15
2019-02-23T08:49:39.137Z,65.06
2019-02-23T08:50:39.360Z,64.49
2019-02-23T08:51:39.347Z,63.92
2019-02-23T08:52:50.804Z,63.35
2019-02-23T08:53:39.328Z,62.97
2019-02-23T08:54:39.299Z,63.26
2019-02-23T08:55:39.284Z,63.26
2019-02-23T08:56:39.271Z,63.54
2019-02-23T08:57:39.256Z,62.97
2019-02-23T08:58:39.239Z,62.4
2019-02-23T08:59:39.236Z,62.12
2019-02-23T09:00:39.212Z,61.46
2019-02-23T09:01:39.199Z,61.65
2019-02-23T09:02:39.176Z,61.36
2019-02-23T09:03:39.162Z,61.36
2019-02-23T09:04:39.148Z,60.99
2019-02-23T09:05:39.131Z,60.61
2019-02-23T09:06:39.117Z,60.89
2019-02-23T09:07:39.102Z,61.18
2019-02-23T09:08:39.094Z,61.27
2019-02-23T09:09:39.075Z,60.99
2019-02-23T09:10:39.060Z,61.65
2019-02-23T09:11:39.043Z,61.46
2019-02-23T09:12:39.028Z,61.3
2019-02-23T09:13:39.015Z,60.64
2019-02-23T09:14:38.994Z,60.54
2019-02-23T09:15:38.979Z,60.54
2019-02-23T09:16:39.035Z,60.44
2019-02-23T09:17:38.954Z,60.25
2019-02-23T09:18:38.935Z,60.06
2019-02-23T09:19:38.922Z,60.25
2019-02-23T09:20:38.910Z,60.16
2019-02-23T09:21:38.894Z,59.69
2019-02-23T09:22:38.879Z,58.55
2019-02-23T09:23:38.860Z,58.84
2019-02-23T09:24:38.847Z,57.98
2019-02-23T09:25:38.832Z,57.23
2019-02-23T09:26:38.822Z,57.42
2019-02-23T09:27:38.802Z,57.79
2019-02-23T09:28:38.788Z,57.51
2019-02-23T09:29:38.788Z,56.37
2019-02-23T09:30:38.757Z,56.09
2019-02-23T09:31:38.744Z,55.33
2019-02-23T09:32:38.731Z,55.71
2019-02-23T09:33:38.713Z,55.24
2019-02-23T09:34:38.701Z,55.24
2019-02-23T09:35:38.683Z,54.57
2019-02-23T09:36:38.669Z,54.19
2019-02-23T09:37:38.662Z,53.91
2019-02-23T09:38:38.638Z,53.91
2019-02-23T09:39:38.638Z,54.38
2019-02-23T09:40:38.624Z,54.38
2019-02-23T09:41:38.601Z,54.19
2019-02-23T09:42:38.595Z,53.91
2019-02-23T09:43:38.568Z,53.81
2019-02-23T09:44:38.554Z,53.34
2019-02-23T09:45:38.539Z,52.77
2019-02-23T09:46:38.524Z,52.48
2019-02-23T09:47:38.509Z,52.29
2019-02-23T09:48:38.494Z,51.73
2019-02-23T09:49:38.484Z,51.76
2019-02-23T09:50:38.467Z,51.95
2019-02-23T09:51:38.452Z,51.85
2019-02-23T09:52:38.485Z,51.95
2019-02-23T09:53:38.178Z,51.85
2019-02-23T09:54:38.406Z,50.52
2019-02-23T09:55:38.396Z,50.71
2019-02-23T09:56:38.380Z,50.52
2019-02-23T09:57:38.371Z,50.24
2019-02-23T09:58:38.352Z,50.05
2019-02-23T09:59:40.123Z,50.24
2019-02-23T10:00:38.326Z,49.19
2019-02-23T10:01:38.305Z,49.1
2019-02-23T10:02:38.292Z,49.38
2019-02-23T10:03:38.279Z,49.29
2019-02-23T10:04:38.263Z,49.48
2019-02-23T10:05:40.599Z,49.19
2019-02-23T10:06:38.291Z,49.29
2019-02-23T10:07:38.219Z,49.48
2019-02-23T10:08:38.208Z,49.67
2019-02-23T10:09:38.190Z,49.48
2019-02-23T10:10:38.175Z,48.91
2019-02-23T10:11:38.162Z,47.87
2019-02-23T10:12:38.147Z,47.49
2019-02-23T10:13:38.134Z,47.58
2019-02-23T10:14:38.134Z,47.68
2019-02-23T10:15:38.107Z,47.96
2019-02-23T10:16:38.092Z,48.15
2019-02-23T10:17:38.078Z,48.25
2019-02-23T10:18:38.066Z,48.06
2019-02-23T10:19:38.050Z,47.77
2019-02-23T10:20:38.035Z,48.06
2019-02-23T10:21:38.022Z,48.91
2019-02-23T10:22:39.581Z,49.19
2019-02-23T10:23:37.994Z,49.01
2019-02-23T10:24:37.976Z,48.65
2019-02-23T10:25:37.961Z,48.94
2019-02-23T10:26:37.951Z,49.32
2019-02-23T10:27:37.937Z,49.03
2019-02-23T10:28:37.925Z,49.22
2019-02-23T10:29:37.909Z,48.75
2019-02-23T10:30:37.894Z,48.75
2019-02-23T10:31:37.879Z,49.22
2019-02-23T10:32:37.865Z,49.03
2019-02-23T10:33:47.500Z,49.22
2019-02-23T10:34:37.837Z,48.94
2019-02-23T10:35:37.829Z,49.22
2019-02-23T10:36:37.812Z,48.94
2019-02-23T10:37:37.796Z,48.75
2019-02-23T10:38:37.541Z,47.89
2019-02-23T10:39:37.768Z,47.61
2019-02-23T10:40:37.754Z,47.32
2019-02-23T10:41:37.744Z,47.52
2019-02-23T10:42:37.728Z,46.94
2019-02-23T10:43:37.712Z,47.04
2019-02-23T10:44:37.698Z,47.04
2019-02-23T10:45:37.686Z,46.94
2019-02-23T10:46:37.675Z,47.13
2019-02-23T10:47:37.659Z,46.56
2019-02-23T10:48:37.644Z,45.71
2019-02-23T10:49:37.632Z,45.81
2019-02-23T10:50:37.620Z,46.09
2019-02-23T10:51:37.605Z,45.33
2019-02-23T10:52:37.589Z,44.95
2019-02-23T10:53:37.576Z,44.85
2019-02-23T10:54:37.562Z,44.85
2019-02-23T10:55:37.551Z,45.24
2019-02-23T10:56:37.540Z,45.52
2019-02-23T10:57:37.525Z,44.95
2019-02-23T10:58:37.508Z,44.95
2019-02-23T11:00:37.483Z,45.05
2019-02-23T11:01:37.468Z,45.71
2019-02-23T11:02:37.453Z,45.52
2019-02-23T11:03:37.447Z,46.09
2019-02-23T11:04:37.429Z,46.11
2019-02-23T11:05:37.420Z,46.49
2019-02-23T11:06:38.477Z,46.47
2019-02-23T11:07:37.386Z,46.75
2019-02-23T11:08:37.373Z,46.78
2019-02-23T11:09:37.363Z,47.06
2019-02-23T11:10:37.347Z,46.97
2019-02-23T11:11:37.335Z,46.4
2019-02-23T11:12:37.320Z,46.49
2019-02-23T11:13:37.306Z,46.21
2019-02-23T11:14:37.334Z,46.3
2019-02-23T11:15:37.282Z,46.21
2019-02-23T11:16:37.265Z,45.64
2019-02-23T11:17:37.255Z,45.54
2019-02-23T11:18:37.241Z,45.45
2019-02-23T11:19:37.224Z,45.73
2019-02-23T11:20:37.212Z,45.92
2019-02-23T11:21:37.210Z,45.45
2019-02-23T11:22:37.187Z,45.83
2019-02-23T11:23:46.556Z,46.21
2019-02-23T11:24:37.157Z,46.21
2019-02-23T11:25:37.146Z,45.92
2019-02-23T11:26:37.140Z,45.83
2019-02-23T11:27:37.119Z,46.02
2019-02-23T11:28:37.105Z,45.83
2019-02-23T11:29:37.100Z,45.83
2019-02-23T11:30:37.078Z,45.83
2019-02-23T11:31:37.067Z,45.92
2019-02-23T11:32:37.053Z,45.92
2019-02-23T11:33:37.040Z,46.4
2019-02-23T11:34:37.026Z,46.42
2019-02-23T11:35:37.020Z,46.04
2019-02-23T11:36:37.000Z,46.14
2019-02-23T11:37:36.988Z,45.28
2019-02-23T11:38:36.979Z,45.47
2019-02-23T11:39:37.213Z,45.66
2019-02-23T11:40:36.951Z,45.66
2019-02-23T11:41:36.940Z,45.57
2019-02-23T11:42:36.926Z,45.57
2019-02-23T11:43:36.921Z,44.9
2019-02-23T11:44:36.901Z,44.24
2019-02-23T11:45:36.888Z,44.24
2019-02-23T11:46:36.873Z,43.95
2019-02-23T11:47:36.858Z,44.24
2019-02-23T11:48:36.847Z,44.71
2019-02-23T11:49:36.834Z,44.9
2019-02-23T11:50:36.825Z,44.81
2019-02-23T11:51:36.810Z,45.76
2019-02-23T11:52:39.220Z,45.47
2019-02-23T11:53:36.783Z,44.24
2019-02-23T11:54:36.772Z,43.76
2019-02-23T11:55:36.762Z,43.86
2019-02-23T11:56:36.745Z,43.95
2019-02-23T11:57:36.739Z,44.24
2019-02-23T11:58:36.723Z,44.17
2019-02-23T11:59:36.708Z,43.88
2019-02-23T12:00:36.699Z,43.41
2019-02-23T12:01:36.683Z,42.93
2019-02-23T12:02:36.671Z,42.93
2019-02-23T12:03:36.660Z,42.65
2019-02-23T12:04:36.645Z,42.74
2019-02-23T12:05:36.642Z,43.02
2019-02-23T12:06:36.621Z,43.31
2019-02-23T12:07:36.616Z,43.5
2019-02-23T12:08:36.596Z,42.83
2019-02-23T12:09:36.600Z,41.6
2019-02-23T12:10:36.823Z,41.22
2019-02-23T12:11:36.559Z,41.22
2019-02-23T12:12:36.549Z,41.89
2019-02-23T12:13:36.543Z,41.98
2019-02-23T12:14:36.525Z,41.5
2019-02-23T12:15:36.510Z,41.6
2019-02-23T12:16:36.498Z,40.95
2019-02-23T12:17:36.492Z,40.77
2019-02-23T12:18:36.477Z,40.77
2019-02-23T12:19:36.463Z,41.14
2019-02-23T12:20:36.452Z,40.86
2019-02-23T12:21:36.439Z,40.48
2019-02-23T12:22:36.451Z,40.67
2019-02-23T12:23:36.420Z,40.95
2019-02-23T12:24:36.407Z,41.24
2019-02-23T12:25:36.392Z,40.77
2019-02-23T12:26:36.388Z,40.39
2019-02-23T12:27:36.371Z,39.91
2019-02-23T12:28:36.116Z,39.81
2019-02-23T12:29:36.357Z,39.25
2019-02-23T12:30:36.337Z,38.2
2019-02-23T12:31:36.329Z,38.1
2019-02-23T12:32:36.313Z,38.2
2019-02-23T12:33:36.301Z,37.92
2019-02-23T12:34:36.289Z,37.25
2019-02-23T12:35:36.278Z,37.44
2019-02-23T12:36:36.023Z,37.35
2019-02-23T12:37:36.258Z,37.25
2019-02-23T12:38:36.243Z,37.44
2019-02-23T12:39:36.235Z,37.82
2019-02-23T12:40:36.220Z,38.39
2019-02-23T12:41:36.209Z,38.58
2019-02-23T12:42:36.197Z,38.77
2019-02-23T12:43:36.183Z,39.53
2019-02-23T12:44:36.174Z,39.91
2019-02-23T12:45:36.162Z,39.62
2019-02-23T12:46:36.158Z,40.29
2019-02-23T12:47:36.139Z,40.48
2019-02-23T12:48:36.132Z,40.86
2019-02-23T12:49:36.119Z,40.95
2019-02-23T12:50:36.101Z,41.05
2019-02-23T12:51:36.105Z,41.24
2019-02-23T12:52:36.078Z,41.14
2019-02-23T12:53:36.069Z,41.24
2019-02-23T12:54:36.055Z,40.67
2019-02-23T12:55:36.050Z,40.58